Terminal Aerodrome Forecast
Issued by NWS

Home | Current Version | Previous Version | Graphics & Text | Print | Product List | Glossary On
Versions: 1 2 3 4 5 6 7 8 9 10 11 12 13 14 15
000
FTUS43 KBIS 242300
TAFDIK
TAF
KDIK 242334Z 2500/2524 32016KT P6SM -RA OVC010
     FM250200 32014KT P6SM VCSH OVC015
     FM251100 30015KT P6SM OVC025
     FM251800 24010KT P6SM SCT025=

USA.gov is the U.S. government's official web portal to all federal, state and local government web resources and services.